Time;durP1;ratioP1;P1;durP2;ratioP2;P2;SDS_P1;SDS_P2;PMS_P1;PMS_P2;Temp;Humidity;BMP_temperature;BMP_pressure;BME280_temperature;BME280_humidity;BME280_pressure;Samples;Min_cycle;Max_cycle;Signal;HPM_P1;HPM_P2
2021/12/24 07:32:54;;;;;;;155.32;99.22;;;;;;;-0.19;100.00;100926.06;4970500;27;20437;-80
2021/12/24 07:35:21;;;;;;;191.73;122.83;;;;;;;-2.36;100.00;100927.09;4799322;28;2270171;-81
2021/12/24 07:37:48;;;;;;;202.30;120.45;;;;;;;-2.55;100.00;100919.00;4835482;28;91061;-82
2021/12/24 07:40:16;;;;;;;234.43;135.43;;;;;;;-2.75;100.00;100920.53;4994199;28;20471;-80
2021/12/24 07:42:44;;;;;;;237.93;134.15;;;;;;;-2.67;100.00;100922.53;4990383;28;20042;-79
2021/12/24 07:45:11;;;;;;;200.57;122.15;;;;;;;-2.72;100.00;100930.69;4884851;28;20434;-79
2021/12/24 07:47:40;;;;;;;206.88;126.97;;;;;;;-2.60;100.00;100915.94;4998529;28;20078;-80
2021/12/24 07:51:56;;;;;;;189.77;127.10;;;;;;;-2.04;100.00;100913.34;4972971;28;20051;-79
2021/12/24 07:53:05;;;;;;;117.43;91.40;;;;;;;-1.81;100.00;100924.59;4973510;28;20051;-81
2021/12/24 07:55:32;;;;;;;100.57;82.88;;;;;;;-1.80;100.00;100926.22;4946149;28;20066;-82
2021/12/24 07:57:59;;;;;;;268.27;137.43;;;;;;;-1.48;100.00;100930.69;4973279;28;20043;-80
2021/12/24 08:00:27;;;;;;;183.82;117.95;;;;;;;-1.38;100.00;100926.38;4956974;28;20054;-80
2021/12/24 08:02:54;;;;;;;178.15;110.05;;;;;;;-1.36;100.00;100915.81;4990073;28;20074;-83
2021/12/24 08:05:25;;;;;;;136.70;101.60;;;;;;;-1.24;100.00;100918.28;4991271;28;20124;-82
2021/12/24 08:07:54;;;;;;;142.63;102.97;;;;;;;-1.14;100.00;100917.53;4959900;28;20086;-83
2021/12/24 08:12:16;;;;;;;107.22;83.32;;;;;;;-1.12;100.00;100903.41;4770958;27;20425;-82
2021/12/24 08:14:44;;;;;;;92.85;80.38;;;;;;;-1.02;100.00;100893.06;5017651;28;20108;-81
2021/12/24 08:17:11;;;;;;;82.15;69.82;;;;;;;-0.98;100.00;100892.66;5029836;28;20054;-82
2021/12/24 08:19:42;;;;;;;75.68;67.57;;;;;;;-1.14;100.00;100881.03;5039993;28;20071;-82
2021/12/24 08:22:10;;;;;;;69.13;62.13;;;;;;;-1.15;100.00;100872.34;5032894;22;20050;-90
2021/12/24 08:24:37;;;;;;;78.95;66.97;;;;;;;-1.05;100.00;100868.06;4961834;22;20466;-79
2021/12/24 08:27:06;;;;;;;103.93;75.57;;;;;;;-1.05;100.00;100857.63;4968665;28;20089;-80
2021/12/24 08:29:37;;;;;;;109.75;81.57;;;;;;;-0.72;100.00;100861.81;5004339;28;20054;-80
2021/12/24 08:32:05;;;;;;;81.20;67.78;;;;;;;-0.30;100.00;100868.75;5003842;28;20116;-83
2021/12/24 08:34:33;;;;;;;71.65;64.55;;;;;;;-0.37;100.00;100862.38;4974276;28;20497;-82
2021/12/24 08:37:00;;;;;;;79.90;70.57;;;;;;;-0.43;100.00;100857.69;5004185;28;20125;-80
2021/12/24 08:39:27;;;;;;;85.03;72.57;;;;;;;-0.12;100.00;100861.94;5008915;28;20046;-81
2021/12/24 08:41:54;;;;;;;83.45;71.78;;;;;;;1.87;100.00;100848.19;5004875;28;20042;-79
2021/12/24 08:44:21;;;;;;;74.50;65.65;;;;;;;2.61;100.00;100833.25;4978102;28;20050;-82
2021/12/24 08:46:50;;;;;;;96.15;74.55;;;;;;;2.83;100.00;100810.94;4999922;28;20046;-80
2021/12/24 08:49:17;;;;;;;96.82;76.45;;;;;;;2.89;100.00;100808.53;5024184;28;20139;-83
2021/12/24 08:51:43;;;;;;;129.10;81.07;;;;;;;2.46;100.00;100822.44;5034127;28;20104;-79
2021/12/24 08:54:10;;;;;;;81.93;69.57;;;;;;;3.11;100.00;100820.31;5029374;28;20046;-81
2021/12/24 08:56:37;;;;;;;63.17;56.90;;;;;;;4.40;100.00;100812.25;5026708;28;20466;-83
2021/12/24 08:59:04;;;;;;;59.85;54.75;;;;;;;5.62;100.00;100813.84;5037249;28;20123;-83
2021/12/24 09:01:31;;;;;;;60.13;54.85;;;;;;;4.95;100.00;100814.19;5036738;28;20049;-84
2021/12/24 09:04:01;;;;;;;66.00;59.85;;;;;;;6.09;100.00;100809.53;5038030;28;20045;-80
2021/12/24 09:06:30;;;;;;;65.50;59.33;;;;;;;6.28;100.00;100795.06;5035880;28;20081;-80
2021/12/24 09:08:58;;;;;;;72.85;65.70;;;;;;;6.90;100.00;100784.34;5031966;28;20064;-81
2021/12/24 09:11:26;;;;;;;72.13;63.47;;;;;;;6.71;100.00;100782.19;5036866;28;20049;-80
2021/12/24 09:13:52;;;;;;;63.30;57.33;;;;;;;7.58;100.00;100769.19;5031365;28;20053;-80
2021/12/24 09:16:19;;;;;;;60.47;55.45;;;;;;;7.37;100.00;100769.13;5026341;28;20469;-84
2021/12/24 09:18:49;;;;;;;56.20;51.72;;;;;;;7.44;100.00;100765.56;5035089;28;20041;-80
2021/12/24 09:21:19;;;;;;;58.33;53.42;;;;;;;6.92;100.00;100749.81;5035569;28;20050;-80
2021/12/24 09:23:49;;;;;;;55.40;51.17;;;;;;;6.02;100.00;100748.78;5022742;28;20477;-80
2021/12/24 09:26:17;;;;;;;54.65;50.55;;;;;;;6.58;100.00;100741.38;5020214;28;20073;-80
2021/12/24 09:28:44;;;;;;;58.00;53.22;;;;;;;6.72;100.00;100738.94;5020468;28;20049;-82
2021/12/24 09:31:11;;;;;;;55.53;50.92;;;;;;;6.52;100.00;100721.00;5020153;28;20041;-82
2021/12/24 09:33:38;;;;;;;55.28;50.72;;;;;;;7.82;100.00;100720.47;5016581;28;20049;-80
2021/12/24 09:36:06;;;;;;;59.35;54.55;;;;;;;6.22;100.00;100714.81;5020808;28;20518;-83
2021/12/24 09:38:34;;;;;;;54.28;50.28;;;;;;;6.18;100.00;100708.28;5027030;28;20554;-80
2021/12/24 09:41:02;;;;;;;53.95;50.25;;;;;;;6.50;100.00;100716.88;5023887;28;20049;-79
2021/12/24 09:43:28;;;;;;;52.47;48.75;;;;;;;6.68;100.00;100703.38;5024972;28;20429;-80
